sensor_id;sensor_type;location;lat;lon;timestamp;pressure;altitude;pressure_sealevel;temperature;humidity
38225;BME280;24025;48.138;11.428;2023-02-18T00:02:27;96405.50;;;10.68;72.21
38225;BME280;24025;48.138;11.428;2023-02-18T00:04:57;96419.19;;;10.67;72.11
38225;BME280;24025;48.138;11.428;2023-02-18T00:07:28;96412.66;;;10.64;72.69
38225;BME280;24025;48.138;11.428;2023-02-18T00:10:03;96404.88;;;10.59;73.17
38225;BME280;24025;48.138;11.428;2023-02-18T00:12:34;96404.81;;;10.56;73.37
38225;BME280;24025;48.138;11.428;2023-02-18T00:15:05;96399.13;;;10.57;73.20
38225;BME280;24025;48.138;11.428;2023-02-18T00:17:36;96388.47;;;10.57;73.16
38225;BME280;24025;48.138;11.428;2023-02-18T00:20:07;96381.16;;;10.54;73.31
38225;BME280;24025;48.138;11.428;2023-02-18T00:22:37;96383.03;;;10.54;73.20
38225;BME280;24025;48.138;11.428;2023-02-18T00:25:08;96385.44;;;10.43;73.65
38225;BME280;24025;48.138;11.428;2023-02-18T00:27:38;96376.19;;;10.40;73.98
38225;BME280;24025;48.138;11.428;2023-02-18T00:30:09;96383.00;;;10.38;74.11
38225;BME280;24025;48.138;11.428;2023-02-18T00:32:40;96363.47;;;10.34;74.37
38225;BME280;24025;48.138;11.428;2023-02-18T00:35:10;96372.03;;;10.27;74.85
38225;BME280;24025;48.138;11.428;2023-02-18T00:37:40;96376.59;;;10.27;74.66
38225;BME280;24025;48.138;11.428;2023-02-18T00:40:11;96377.06;;;10.16;75.13
38225;BME280;24025;48.138;11.428;2023-02-18T00:42:42;96364.94;;;10.19;75.41
38225;BME280;24025;48.138;11.428;2023-02-18T00:45:12;96371.03;;;10.19;75.52
38225;BME280;24025;48.138;11.428;2023-02-18T00:47:42;96360.38;;;10.19;75.58
38225;BME280;24025;48.138;11.428;2023-02-18T00:50:13;96358.81;;;10.18;75.56
38225;BME280;24025;48.138;11.428;2023-02-18T00:52:43;96367.03;;;10.13;76.25
38225;BME280;24025;48.138;11.428;2023-02-18T00:55:14;96365.50;;;10.12;76.01
38225;BME280;24025;48.138;11.428;2023-02-18T00:57:44;96371.50;;;10.09;76.58
38225;BME280;24025;48.138;11.428;2023-02-18T01:00:16;96371.09;;;10.07;76.31
38225;BME280;24025;48.138;11.428;2023-02-18T01:02:46;96374.06;;;10.06;76.84
38225;BME280;24025;48.138;11.428;2023-02-18T01:05:17;96369.97;;;10.08;76.96
38225;BME280;24025;48.138;11.428;2023-02-18T01:07:47;96368.06;;;10.09;77.35
38225;BME280;24025;48.138;11.428;2023-02-18T01:10:18;96369.19;;;10.08;77.16
38225;BME280;24025;48.138;11.428;2023-02-18T01:12:48;96366.06;;;10.06;77.29
38225;BME280;24025;48.138;11.428;2023-02-18T01:15:19;96367.19;;;10.05;77.21
38225;BME280;24025;48.138;11.428;2023-02-18T01:17:50;96366.31;;;10.01;78.23
38225;BME280;24025;48.138;11.428;2023-02-18T01:20:23;96358.75;;;10.03;78.05
38225;BME280;24025;48.138;11.428;2023-02-18T01:22:54;96351.88;;;10.02;77.74
38225;BME280;24025;48.138;11.428;2023-02-18T01:25:24;96350.97;;;9.98;78.26
38225;BME280;24025;48.138;11.428;2023-02-18T01:27:55;96349.09;;;9.98;77.84
38225;BME280;24025;48.138;11.428;2023-02-18T01:30:25;96354.75;;;9.97;78.25
38225;BME280;24025;48.138;11.428;2023-02-18T01:32:56;96352.09;;;9.97;78.59
38225;BME280;24025;48.138;11.428;2023-02-18T01:35:27;96338.69;;;9.93;78.53
38225;BME280;24025;48.138;11.428;2023-02-18T01:37:57;96346.25;;;9.91;78.34
38225;BME280;24025;48.138;11.428;2023-02-18T01:40:32;96338.47;;;9.86;79.03
38225;BME280;24025;48.138;11.428;2023-02-18T01:43:03;96341.06;;;9.82;79.49
38225;BME280;24025;48.138;11.428;2023-02-18T01:48:08;96337.03;;;9.88;79.49
38225;BME280;24025;48.138;11.428;2023-02-18T01:50:47;96334.69;;;9.87;80.02
38225;BME280;24025;48.138;11.428;2023-02-18T01:53:30;96339.03;;;9.91;79.85
38225;BME280;24025;48.138;11.428;2023-02-18T01:56:06;96333.28;;;9.89;80.14
38225;BME280;24025;48.138;11.428;2023-02-18T01:58:37;96331.38;;;9.90;80.25
38225;BME280;24025;48.138;11.428;2023-02-18T02:01:08;96320.72;;;9.90;80.02
38225;BME280;24025;48.138;11.428;2023-02-18T02:03:40;96325.72;;;9.91;80.44
38225;BME280;24025;48.138;11.428;2023-02-18T02:06:20;96328.03;;;9.93;80.37
38225;BME280;24025;48.138;11.428;2023-02-18T02:08:55;96321.25;;;9.96;79.78
38225;BME280;24025;48.138;11.428;2023-02-18T02:14:29;96324.69;;;9.96;80.23
38225;BME280;24025;48.138;11.428;2023-02-18T02:26:17;96314.78;;;10.09;80.07
38225;BME280;24025;48.138;11.428;2023-02-18T02:46:08;96310.41;;;10.16;80.64
38225;BME280;24025;48.138;11.428;2023-02-18T02:49:02;96298.66;;;10.17;80.58
38225;BME280;24025;48.138;11.428;2023-02-18T02:51:43;96299.06;;;10.19;80.62
38225;BME280;24025;48.138;11.428;2023-02-18T02:54:20;96300.19;;;10.18;80.90
38225;BME280;24025;48.138;11.428;2023-02-18T02:59:37;96289.00;;;10.13;81.51
38225;BME280;24025;48.138;11.428;2023-02-18T03:10:55;96294.88;;;10.06;82.34
38225;BME280;24025;48.138;11.428;2023-02-18T03:19:10;96287.66;;;10.07;82.44
38225;BME280;24025;48.138;11.428;2023-02-18T03:22:04;96291.13;;;10.07;82.08
38225;BME280;24025;48.138;11.428;2023-02-18T03:24:41;96290.19;;;10.15;81.74
38225;BME280;24025;48.138;11.428;2023-02-18T03:27:22;96292.63;;;10.20;81.57
38225;BME280;24025;48.138;11.428;2023-02-18T03:29:58;96290.66;;;10.17;81.94
38225;BME280;24025;48.138;11.428;2023-02-18T03:32:33;96291.06;;;10.19;81.52
38225;BME280;24025;48.138;11.428;2023-02-18T03:35:11;96298.53;;;10.26;81.03
38225;BME280;24025;48.138;11.428;2023-02-18T03:37:55;96286.81;;;10.31;80.54
38225;BME280;24025;48.138;11.428;2023-02-18T03:40:30;96278.16;;;10.34;80.04
38225;BME280;24025;48.138;11.428;2023-02-18T03:43:01;96287.16;;;10.29;80.04
38225;BME280;24025;48.138;11.428;2023-02-18T03:45:32;96288.81;;;10.34;79.82
38225;BME280;24025;48.138;11.428;2023-02-18T03:48:02;96292.16;;;10.31;79.67
38225;BME280;24025;48.138;11.428;2023-02-18T03:50:33;96290.38;;;10.35;79.56
38225;BME280;24025;48.138;11.428;2023-02-18T03:53:03;96262.47;;;10.32;79.79
38225;BME280;24025;48.138;11.428;2023-02-18T03:55:34;96276.16;;;10.31;80.10
38225;BME280;24025;48.138;11.428;2023-02-18T03:58:04;96272.72;;;10.30;80.17
38225;BME280;24025;48.138;11.428;2023-02-18T04:00:35;96274.19;;;10.28;80.54
38225;BME280;24025;48.138;11.428;2023-02-18T04:03:05;96279.88;;;10.26;80.77
38225;BME280;24025;48.138;11.428;2023-02-18T04:05:36;96287.09;;;10.26;80.69
38225;BME280;24025;48.138;11.428;2023-02-18T04:08:06;96276.44;;;10.26;80.93
38225;BME280;24025;48.138;11.428;2023-02-18T04:10:37;96276.75;;;10.24;81.11
38225;BME280;24025;48.138;11.428;2023-02-18T04:13:07;96282.84;;;10.25;81.18
38225;BME280;24025;48.138;11.428;2023-02-18T04:15:37;96283.50;;;10.21;81.32
38225;BME280;24025;48.138;11.428;2023-02-18T04:18:08;96285.75;;;10.19;81.41
38225;BME280;24025;48.138;11.428;2023-02-18T04:20:38;96286.19;;;10.21;81.19
38225;BME280;24025;48.138;11.428;2023-02-18T04:23:09;96274.66;;;10.17;81.18
38225;BME280;24025;48.138;11.428;2023-02-18T04:25:39;96278.53;;;10.20;81.42
38225;BME280;24025;48.138;11.428;2023-02-18T04:28:12;96284.63;;;10.20;81.14
38225;BME280;24025;48.138;11.428;2023-02-18T04:30:43;96283.00;;;10.16;81.42
38225;BME280;24025;48.138;11.428;2023-02-18T04:33:14;96272.06;;;10.21;81.47
38225;BME280;24025;48.138;11.428;2023-02-18T04:35:45;96285.19;;;10.14;81.53
38225;BME280;24025;48.138;11.428;2023-02-18T04:38:15;96283.44;;;10.18;80.94
38225;BME280;24025;48.138;11.428;2023-02-18T04:40:46;96284.84;;;10.15;81.15
38225;BME280;24025;48.138;11.428;2023-02-18T04:43:16;96292.53;;;10.17;80.86
38225;BME280;24025;48.138;11.428;2023-02-18T04:45:46;96287.53;;;10.15;80.78
38225;BME280;24025;48.138;11.428;2023-02-18T04:48:17;96287.44;;;10.12;80.85
38225;BME280;24025;48.138;11.428;2023-02-18T04:50:47;96295.09;;;10.13;80.75
38225;BME280;24025;48.138;11.428;2023-02-18T04:53:18;96291.22;;;10.11;80.88
38225;BME280;24025;48.138;11.428;2023-02-18T04:55:49;96296.97;;;10.13;80.40
38225;BME280;24025;48.138;11.428;2023-02-18T04:58:20;96294.44;;;10.16;80.69
38225;BME280;24025;48.138;11.428;2023-02-18T05:00:51;96295.22;;;10.17;80.21
38225;BME280;24025;48.138;11.428;2023-02-18T05:03:23;96295.63;;;10.19;80.03
38225;BME280;24025;48.138;11.428;2023-02-18T05:05:53;96303.97;;;10.17;79.88
38225;BME280;24025;48.138;11.428;2023-02-18T05:08:24;96297.53;;;10.18;79.92
38225;BME280;24025;48.138;11.428;2023-02-18T05:10:54;96289.53;;;10.18;79.66
38225;BME280;24025;48.138;11.428;2023-02-18T05:13:24;96279.66;;;10.19;79.79
38225;BME280;24025;48.138;11.428;2023-02-18T05:15:55;96281.88;;;10.17;79.21
38225;BME280;24025;48.138;11.428;2023-02-18T05:18:25;96282.19;;;10.15;79.37
38225;BME280;24025;48.138;11.428;2023-02-18T05:20:56;96289.41;;;10.15;79.22
38225;BME280;24025;48.138;11.428;2023-02-18T05:23:26;96285.13;;;10.10;79.36
38225;BME280;24025;48.138;11.428;2023-02-18T05:25:56;96284.44;;;10.13;79.40
38225;BME280;24025;48.138;11.428;2023-02-18T05:28:27;96277.91;;;10.11;79.27
38225;BME280;24025;48.138;11.428;2023-02-18T05:30:57;96274.47;;;10.10;78.81
38225;BME280;24025;48.138;11.428;2023-02-18T05:33:28;96276.09;;;10.15;79.03
38225;BME280;24025;48.138;11.428;2023-02-18T05:35:58;96276.78;;;10.12;78.77
38225;BME280;24025;48.138;11.428;2023-02-18T05:38:28;96275.78;;;10.16;78.55
38225;BME280;24025;48.138;11.428;2023-02-18T05:41:00;96271.44;;;10.12;78.13
38225;BME280;24025;48.138;11.428;2023-02-18T05:43:30;96274.88;;;10.12;78.14
38225;BME280;24025;48.138;11.428;2023-02-18T05:46:21;96276.44;;;10.13;78.02
38225;BME280;24025;48.138;11.428;2023-02-18T05:48:52;96270.75;;;10.15;77.96
38225;BME280;24025;48.138;11.428;2023-02-18T05:51:22;96267.78;;;10.16;77.75
38225;BME280;24025;48.138;11.428;2023-02-18T05:53:52;96278.66;;;10.11;77.73
38225;BME280;24025;48.138;11.428;2023-02-18T05:56:23;96281.75;;;10.13;77.82
38225;BME280;24025;48.138;11.428;2023-02-18T05:58:53;96278.31;;;10.13;77.85
38225;BME280;24025;48.138;11.428;2023-02-18T06:01:24;96281.09;;;10.16;77.39
38225;BME280;24025;48.138;11.428;2023-02-18T06:03:54;96278.09;;;10.18;77.16
38225;BME280;24025;48.138;11.428;2023-02-18T06:06:25;96279.28;;;10.20;76.86
38225;BME280;24025;48.138;11.428;2023-02-18T06:08:55;96282.72;;;10.21;76.90
38225;BME280;24025;48.138;11.428;2023-02-18T06:11:26;96279.88;;;10.14;76.90
38225;BME280;24025;48.138;11.428;2023-02-18T06:13:56;96281.88;;;10.17;77.16
38225;BME280;24025;48.138;11.428;2023-02-18T06:16:27;96273.19;;;10.20;76.63
38225;BME280;24025;48.138;11.428;2023-02-18T06:18:58;96286.19;;;10.21;76.50
38225;BME280;24025;48.138;11.428;2023-02-18T06:21:28;96287.63;;;10.19;76.36
38225;BME280;24025;48.138;11.428;2023-02-18T06:23:58;96286.97;;;10.22;76.23
38225;BME280;24025;48.138;11.428;2023-02-18T06:26:29;96283.66;;;10.25;75.60
38225;BME280;24025;48.138;11.428;2023-02-18T06:28:59;96287.75;;;10.23;75.60
38225;BME280;24025;48.138;11.428;2023-02-18T06:31:30;96287.75;;;10.23;75.60
38225;BME280;24025;48.138;11.428;2023-02-18T06:34:00;96296.53;;;10.23;75.24
38225;BME280;24025;48.138;11.428;2023-02-18T06:36:30;96294.63;;;10.24;75.19
38225;BME280;24025;48.138;11.428;2023-02-18T06:39:03;96286.75;;;10.27;74.84
38225;BME280;24025;48.138;11.428;2023-02-18T06:41:33;96295.50;;;10.28;75.13
38225;BME280;24025;48.138;11.428;2023-02-18T06:44:04;96304.28;;;10.28;74.95
38225;BME280;24025;48.138;11.428;2023-02-18T06:46:34;96304.38;;;10.32;74.57
38225;BME280;24025;48.138;11.428;2023-02-18T06:49:05;96297.69;;;10.38;74.14
38225;BME280;24025;48.138;11.428;2023-02-18T06:51:35;96290.09;;;10.40;74.36
38225;BME280;24025;48.138;11.428;2023-02-18T06:54:06;96292.53;;;10.45;74.16
38225;BME280;24025;48.138;11.428;2023-02-18T06:56:37;96293.88;;;10.39;73.78
38225;BME280;24025;48.138;11.428;2023-02-18T06:59:07;96281.25;;;10.36;73.98
38225;BME280;24025;48.138;11.428;2023-02-18T07:01:38;96284.88;;;10.43;73.74
38225;BME280;24025;48.138;11.428;2023-02-18T07:04:08;96286.00;;;10.42;73.54
38225;BME280;24025;48.138;11.428;2023-02-18T07:06:39;96271.38;;;10.52;73.62
38225;BME280;24025;48.138;11.428;2023-02-18T07:09:09;96276.81;;;10.56;73.43
38225;BME280;24025;48.138;11.428;2023-02-18T07:11:40;96270.28;;;10.53;73.00
38225;BME280;24025;48.138;11.428;2023-02-18T07:14:10;96276.88;;;10.59;72.67
38225;BME280;24025;48.138;11.428;2023-02-18T07:16:40;96277.22;;;10.58;72.64
38225;BME280;24025;48.138;11.428;2023-02-18T07:19:11;96292.22;;;10.62;72.42
38225;BME280;24025;48.138;11.428;2023-02-18T07:21:42;96287.22;;;10.61;72.08
38225;BME280;24025;48.138;11.428;2023-02-18T07:24:12;96285.75;;;10.63;72.18
38225;BME280;24025;48.138;11.428;2023-02-18T07:26:42;96283.44;;;10.62;72.12
38225;BME280;24025;48.138;11.428;2023-02-18T07:29:13;96295.13;;;10.57;72.72
38225;BME280;24025;48.138;11.428;2023-02-18T07:31:43;96302.88;;;10.62;72.29
38225;BME280;24025;48.138;11.428;2023-02-18T07:34:13;96296.00;;;10.61;72.11
38225;BME280;24025;48.138;11.428;2023-02-18T07:36:44;96298.56;;;10.58;72.38
38225;BME280;24025;48.138;11.428;2023-02-18T07:39:14;96316.56;;;10.61;72.01
38225;BME280;24025;48.138;11.428;2023-02-18T07:41:49;96298.56;;;10.58;72.27
38225;BME280;24025;48.138;11.428;2023-02-18T07:44:20;96286.88;;;10.62;72.50
38225;BME280;24025;48.138;11.428;2023-02-18T07:46:50;96291.09;;;10.63;72.75
38225;BME280;24025;48.138;11.428;2023-02-18T07:49:20;96299.09;;;10.63;72.54
38225;BME280;24025;48.138;11.428;2023-02-18T07:51:51;96312.78;;;10.62;72.68
38225;BME280;24025;48.138;11.428;2023-02-18T07:54:21;96289.19;;;10.64;72.68
38225;BME280;24025;48.138;11.428;2023-02-18T07:56:52;96287.38;;;10.68;72.22
38225;BME280;24025;48.138;11.428;2023-02-18T07:59:24;96286.88;;;10.62;73.05
38225;BME280;24025;48.138;11.428;2023-02-18T08:01:54;96291.94;;;10.67;72.39
38225;BME280;24025;48.138;11.428;2023-02-18T08:04:24;96283.59;;;10.69;72.29
38225;BME280;24025;48.138;11.428;2023-02-18T08:06:55;96282.22;;;10.75;72.20
38225;BME280;24025;48.138;11.428;2023-02-18T08:09:25;96283.09;;;10.79;71.98
38225;BME280;24025;48.138;11.428;2023-02-18T08:11:57;96252.63;;;10.80;71.94
38225;BME280;24025;48.138;11.428;2023-02-18T08:14:27;96255.91;;;10.73;72.15
38225;BME280;24025;48.138;11.428;2023-02-18T08:16:58;96253.22;;;10.73;71.85
38225;BME280;24025;48.138;11.428;2023-02-18T08:19:28;96250.31;;;10.78;71.40
38225;BME280;24025;48.138;11.428;2023-02-18T08:22:02;96259.59;;;10.85;71.36
38225;BME280;24025;48.138;11.428;2023-02-18T08:24:34;96263.56;;;10.91;71.22
38225;BME280;24025;48.138;11.428;2023-02-18T08:27:04;96250.22;;;10.91;70.83
38225;BME280;24025;48.138;11.428;2023-02-18T08:29:35;96248.75;;;10.93;70.79
38225;BME280;24025;48.138;11.428;2023-02-18T08:32:05;96258.91;;;10.88;70.74
38225;BME280;24025;48.138;11.428;2023-02-18T08:34:36;96251.25;;;10.86;71.26
38225;BME280;24025;48.138;11.428;2023-02-18T08:37:06;96247.91;;;10.89;71.42
38225;BME280;24025;48.138;11.428;2023-02-18T08:39:37;96227.69;;;10.88;71.45
38225;BME280;24025;48.138;11.428;2023-02-18T08:42:08;96235.56;;;10.85;71.64
38225;BME280;24025;48.138;11.428;2023-02-18T08:44:38;96239.28;;;10.80;71.97
38225;BME280;24025;48.138;11.428;2023-02-18T08:47:09;96230.94;;;10.82;72.08
38225;BME280;24025;48.138;11.428;2023-02-18T08:49:42;96221.47;;;10.84;72.22
38225;BME280;24025;48.138;11.428;2023-02-18T08:52:15;96230.41;;;10.92;71.89
38225;BME280;24025;48.138;11.428;2023-02-18T08:54:46;96218.78;;;11.00;71.46
38225;BME280;24025;48.138;11.428;2023-02-18T08:57:16;96221.03;;;10.98;71.49
38225;BME280;24025;48.138;11.428;2023-02-18T08:59:47;96217.59;;;10.97;71.48
38225;BME280;24025;48.138;11.428;2023-02-18T09:02:18;96211.53;;;11.00;71.34
38225;BME280;24025;48.138;11.428;2023-02-18T09:04:48;96213.88;;;11.02;70.78
38225;BME280;24025;48.138;11.428;2023-02-18T09:07:18;96223.31;;;11.15;70.32
38225;BME280;24025;48.138;11.428;2023-02-18T09:09:49;96200.06;;;11.16;70.03
38225;BME280;24025;48.138;11.428;2023-02-18T09:12:19;96211.59;;;11.20;70.10
38225;BME280;24025;48.138;11.428;2023-02-18T09:14:50;96210.03;;;11.19;69.99
38225;BME280;24025;48.138;11.428;2023-02-18T09:17:20;96222.94;;;11.32;69.51
38225;BME280;24025;48.138;11.428;2023-02-18T09:19:52;96209.06;;;11.27;69.24
38225;BME280;24025;48.138;11.428;2023-02-18T09:22:22;96212.59;;;11.31;69.10
38225;BME280;24025;48.138;11.428;2023-02-18T09:24:53;96205.16;;;11.40;68.56
38225;BME280;24025;48.138;11.428;2023-02-18T09:27:24;96203.13;;;11.33;69.19
38225;BME280;24025;48.138;11.428;2023-02-18T09:29:54;96207.06;;;11.40;68.83
38225;BME280;24025;48.138;11.428;2023-02-18T09:32:25;96214.38;;;11.43;68.64
38225;BME280;24025;48.138;11.428;2023-02-18T09:34:56;96223.50;;;11.42;68.22
38225;BME280;24025;48.138;11.428;2023-02-18T09:37:26;96205.22;;;11.44;67.93
38225;BME280;24025;48.138;11.428;2023-02-18T09:39:58;96210.72;;;11.51;67.74
38225;BME280;24025;48.138;11.428;2023-02-18T09:42:33;96214.84;;;11.48;67.72
38225;BME280;24025;48.138;11.428;2023-02-18T09:45:06;96191.41;;;11.57;67.80
38225;BME280;24025;48.138;11.428;2023-02-18T09:47:42;96185.84;;;11.66;67.42
38225;BME280;24025;48.138;11.428;2023-02-18T09:50:23;96185.00;;;11.81;66.72
38225;BME280;24025;48.138;11.428;2023-02-18T09:52:57;96181.75;;;11.91;66.50
38225;BME280;24025;48.138;11.428;2023-02-18T09:58:06;96178.75;;;11.93;65.71
38225;BME280;24025;48.138;11.428;2023-02-18T10:00:40;96160.69;;;12.09;65.83
38225;BME280;24025;48.138;11.428;2023-02-18T10:03:20;96175.34;;;12.19;65.05
38225;BME280;24025;48.138;11.428;2023-02-18T10:06:02;96165.50;;;12.23;64.52
38225;BME280;24025;48.138;11.428;2023-02-18T10:08:37;96154.53;;;12.28;64.44
38225;BME280;24025;48.138;11.428;2023-02-18T10:11:14;96154.09;;;12.26;64.48
38225;BME280;24025;48.138;11.428;2023-02-18T10:13:46;96154.56;;;12.32;64.15
38225;BME280;24025;48.138;11.428;2023-02-18T10:16:17;96135.66;;;12.44;64.25
38225;BME280;24025;48.138;11.428;2023-02-18T10:18:52;96145.69;;;12.51;63.71
38225;BME280;24025;48.138;11.428;2023-02-18T10:21:29;96147.41;;;12.62;62.70
38225;BME280;24025;48.138;11.428;2023-02-18T10:26:54;96154.00;;;12.68;62.21
38225;BME280;24025;48.138;11.428;2023-02-18T10:29:26;96135.31;;;12.72;61.71
38225;BME280;24025;48.138;11.428;2023-02-18T10:32:12;96134.91;;;12.70;61.48
38225;BME280;24025;48.138;11.428;2023-02-18T10:35:02;96128.00;;;12.69;61.59
38225;BME280;24025;48.138;11.428;2023-02-18T10:37:52;96125.06;;;12.77;61.47
38225;BME280;24025;48.138;11.428;2023-02-18T10:40:41;96126.81;;;12.93;61.26
38225;BME280;24025;48.138;11.428;2023-02-18T10:43:29;96122.38;;;12.77;61.31
38225;BME280;24025;48.138;11.428;2023-02-18T10:46:35;96120.34;;;12.97;61.19
38225;BME280;24025;48.138;11.428;2023-02-18T10:49:24;96119.69;;;13.04;60.40
38225;BME280;24025;48.138;11.428;2023-02-18T10:52:02;96112.03;;;13.02;60.63
38225;BME280;24025;48.138;11.428;2023-02-18T10:57:30;96109.88;;;13.15;60.09
38225;BME280;24025;48.138;11.428;2023-02-18T11:02:44;96086.53;;;13.16;60.28
38225;BME280;24025;48.138;11.428;2023-02-18T11:05:22;96079.97;;;13.40;59.96
38225;BME280;24025;48.138;11.428;2023-02-18T11:07:56;96083.94;;;13.53;59.39
38225;BME280;24025;48.138;11.428;2023-02-18T11:10:31;96066.00;;;13.57;59.03
38225;BME280;24025;48.138;11.428;2023-02-18T11:13:05;96067.28;;;13.70;58.90
38225;BME280;24025;48.138;11.428;2023-02-18T11:15:36;96048.78;;;14.02;57.82
38225;BME280;24025;48.138;11.428;2023-02-18T11:20:56;96043.78;;;14.01;57.76
38225;BME280;24025;48.138;11.428;2023-02-18T11:23:27;96046.28;;;14.27;57.13
38225;BME280;24025;48.138;11.428;2023-02-18T11:26:01;96041.69;;;14.28;56.95
38225;BME280;24025;48.138;11.428;2023-02-18T11:28:40;96039.53;;;14.48;56.16
38225;BME280;24025;48.138;11.428;2023-02-18T11:31:23;96042.91;;;14.37;56.24
38225;BME280;24025;48.138;11.428;2023-02-18T11:33:57;96038.44;;;14.56;55.49
38225;BME280;24025;48.138;11.428;2023-02-18T11:36:34;96037.38;;;14.67;55.10
38225;BME280;24025;48.138;11.428;2023-02-18T11:39:16;96031.09;;;14.45;54.65
38225;BME280;24025;48.138;11.428;2023-02-18T11:41:53;96022.41;;;14.70;54.17
38225;BME280;24025;48.138;11.428;2023-02-18T11:49:43;96025.91;;;14.81;53.87
38225;BME280;24025;48.138;11.428;2023-02-18T11:52:19;96015.22;;;14.88;53.70
38225;BME280;24025;48.138;11.428;2023-02-18T11:55:06;96002.19;;;14.94;52.65
38225;BME280;24025;48.138;11.428;2023-02-18T11:57:40;96044.28;;;14.72;53.13
38225;BME280;24025;48.138;11.428;2023-02-18T12:03:08;96009.88;;;14.99;52.31
38225;BME280;24025;48.138;11.428;2023-02-18T12:05:44;96003.66;;;14.77;52.66
38225;BME280;24025;48.138;11.428;2023-02-18T12:08:25;95996.84;;;15.01;52.21
38225;BME280;24025;48.138;11.428;2023-02-18T12:11:08;95998.03;;;15.11;51.85
38225;BME280;24025;48.138;11.428;2023-02-18T12:13:50;95980.44;;;15.31;51.27
38225;BME280;24025;48.138;11.428;2023-02-18T12:16:36;95994.63;;;15.46;51.24
38225;BME280;24025;48.138;11.428;2023-02-18T12:22:18;95973.09;;;16.53;48.28
38225;BME280;24025;48.138;11.428;2023-02-18T12:25:10;95974.72;;;15.90;49.42
38225;BME280;24025;48.138;11.428;2023-02-18T12:36:06;95958.97;;;15.92;49.51
38225;BME280;24025;48.138;11.428;2023-02-18T12:41:41;95964.00;;;15.65;49.78
38225;BME280;24025;48.138;11.428;2023-02-18T12:44:37;95955.50;;;16.05;49.14
38225;BME280;24025;48.138;11.428;2023-02-18T13:05:08;95943.25;;;17.03;47.01
38225;BME280;24025;48.138;11.428;2023-02-18T13:11:29;95953.94;;;16.15;49.20
38225;BME280;24025;48.138;11.428;2023-02-18T13:14:19;95958.13;;;16.37;48.60
38225;BME280;24025;48.138;11.428;2023-02-18T13:16:54;95932.94;;;16.87;48.04
38225;BME280;24025;48.138;11.428;2023-02-18T13:19:26;95929.50;;;16.90;48.07
38225;BME280;24025;48.138;11.428;2023-02-18T13:22:04;95943.97;;;15.98;49.72
38225;BME280;24025;48.138;11.428;2023-02-18T13:24:42;95930.16;;;15.60;50.77
38225;BME280;24025;48.138;11.428;2023-02-18T13:27:30;95937.81;;;15.54;51.10
38225;BME280;24025;48.138;11.428;2023-02-18T13:35:50;95935.16;;;14.28;53.95
38225;BME280;24025;48.138;11.428;2023-02-18T13:41:15;95930.59;;;14.39;53.54
38225;BME280;24025;48.138;11.428;2023-02-18T13:43:46;95919.53;;;14.44;52.93
38225;BME280;24025;48.138;11.428;2023-02-18T13:46:20;95929.78;;;14.25;53.27
38225;BME280;24025;48.138;11.428;2023-02-18T13:49:06;95949.09;;;13.89;54.09
38225;BME280;24025;48.138;11.428;2023-02-18T13:51:45;95936.09;;;13.88;53.74
38225;BME280;24025;48.138;11.428;2023-02-18T13:57:05;95926.56;;;13.46;54.88
38225;BME280;24025;48.138;11.428;2023-02-18T13:59:55;95936.22;;;13.54;55.02
38225;BME280;24025;48.138;11.428;2023-02-18T14:05:20;95925.81;;;13.49;54.81
38225;BME280;24025;48.138;11.428;2023-02-18T14:08:05;95930.47;;;13.56;54.60
38225;BME280;24025;48.138;11.428;2023-02-18T14:10:40;95941.91;;;13.49;54.54
38225;BME280;24025;48.138;11.428;2023-02-18T14:13:36;95936.84;;;13.41;54.75
38225;BME280;24025;48.138;11.428;2023-02-18T14:16:10;95924.66;;;13.43;54.69
38225;BME280;24025;48.138;11.428;2023-02-18T14:26:27;95944.28;;;13.17;55.36
38225;BME280;24025;48.138;11.428;2023-02-18T14:29:14;95955.16;;;12.98;55.72
38225;BME280;24025;48.138;11.428;2023-02-18T14:31:47;95931.53;;;13.07;55.75
38225;BME280;24025;48.138;11.428;2023-02-18T14:37:44;95923.47;;;13.03;56.28
38225;BME280;24025;48.138;11.428;2023-02-18T14:41:21;95956.44;;;13.11;56.12
38225;BME280;24025;48.138;11.428;2023-02-18T14:43:47;95943.00;;;13.04;56.18
38225;BME280;24025;48.138;11.428;2023-02-18T14:49:25;95938.94;;;13.17;56.38
38225;BME280;24025;48.138;11.428;2023-02-18T14:52:01;95927.03;;;13.15;56.21
38225;BME280;24025;48.138;11.428;2023-02-18T14:54:33;95930.00;;;13.06;56.45
38225;BME280;24025;48.138;11.428;2023-02-18T14:57:07;95935.25;;;12.95;56.62
38225;BME280;24025;48.138;11.428;2023-02-18T14:59:42;95921.19;;;13.02;56.69
38225;BME280;24025;48.138;11.428;2023-02-18T15:02:21;95929.56;;;13.00;56.68
38225;BME280;24025;48.138;11.428;2023-02-18T15:04:52;95922.72;;;13.07;56.53
38225;BME280;24025;48.138;11.428;2023-02-18T15:07:23;95923.50;;;13.07;56.36
38225;BME280;24025;48.138;11.428;2023-02-18T15:09:53;95912.69;;;12.96;56.54
38225;BME280;24025;48.138;11.428;2023-02-18T15:12:24;95924.22;;;13.00;55.70
38225;BME280;24025;48.138;11.428;2023-02-18T15:15:01;95915.72;;;12.91;55.68
38225;BME280;24025;48.138;11.428;2023-02-18T15:17:33;95921.13;;;12.98;55.67
38225;BME280;24025;48.138;11.428;2023-02-18T15:20:09;95918.88;;;13.00;55.34
38225;BME280;24025;48.138;11.428;2023-02-18T15:22:41;95926.16;;;13.03;55.14
38225;BME280;24025;48.138;11.428;2023-02-18T15:25:13;95928.75;;;12.96;55.39
38225;BME280;24025;48.138;11.428;2023-02-18T15:27:44;95921.19;;;13.02;55.32
38225;BME280;24025;48.138;11.428;2023-02-18T15:30:27;95925.72;;;12.98;55.63
38225;BME280;24025;48.138;11.428;2023-02-18T15:32:59;95932.56;;;12.95;55.64
38225;BME280;24025;48.138;11.428;2023-02-18T15:35:31;95939.09;;;12.98;55.52
38225;BME280;24025;48.138;11.428;2023-02-18T15:38:02;95938.75;;;12.99;55.52
38225;BME280;24025;48.138;11.428;2023-02-18T15:40:34;95937.59;;;13.00;55.58